Time;durP1;ratioP1;P1;durP2;ratioP2;P2;SDS_P1;SDS_P2;PMS_P1;PMS_P2;Temp;Humidity;BMP_temperature;BMP_pressure;BME280_temperature;BME280_humidity;BME280_pressure;Samples;Min_cycle;Max_cycle;Signal;HPM_P1;HPM_P2
2022/04/20 00:00:14;;;;;;;;;;;;;;;4.65;75.82;99664.09;4968450;28;19921;-84
2022/04/20 00:02:39;;;;;;;;;;;;;;;4.66;75.86;99676.25;4969289;28;19930;-84
2022/04/20 00:05:05;;;;;;;;;;;;;;;4.79;75.00;99672.91;4967834;28;20013;-85
2022/04/20 00:07:30;;;;;;;;;;;;;;;4.74;75.38;99668.50;4968756;28;20309;-83
2022/04/20 00:09:55;;;;;;;;;;;;;;;4.69;75.14;99670.19;4968855;28;19925;-85
2022/04/20 00:12:21;;;;;;;;;;;;;;;4.52;75.32;99683.97;4966077;28;21559;-84
2022/04/20 00:14:46;;;;;;;;;;;;;;;4.51;75.91;99677.03;4968973;28;19922;-84
2022/04/20 00:17:11;;;;;;;;;;;;;;;4.55;75.38;99683.13;4968740;28;19918;-84
2022/04/20 00:19:37;;;;;;;;;;;;;;;4.42;75.12;99685.63;4968652;28;19973;-83
2022/04/20 00:22:02;;;;;;;;;;;;;;;4.45;75.62;99677.81;4969322;28;19918;-83
2022/04/20 00:24:27;;;;;;;;;;;;;;;4.58;75.33;99677.94;4968373;28;20459;-83
2022/04/20 00:26:53;;;;;;;;;;;;;;;4.56;75.05;99677.06;4967953;28;19929;-84
2022/04/20 00:29:18;;;;;;;;;;;;;;;4.56;74.46;99682.28;4968827;28;19918;-83
2022/04/20 00:31:43;;;;;;;;;;;;;;;4.59;74.50;99680.56;4968451;28;19918;-83
2022/04/20 00:34:09;;;;;;;;;;;;;;;4.51;74.41;99682.25;4968523;28;19918;-83
2022/04/20 00:36:34;;;;;;;;;;;;;;;4.44;74.56;99691.75;4968504;28;19973;-83
2022/04/20 00:39:00;;;;;;;;;;;;;;;4.51;73.71;99691.81;4968738;28;19930;-83
2022/04/20 00:41:25;;;;;;;;;;;;;;;4.45;73.58;99693.50;4968272;28;20406;-85
2022/04/20 00:43:50;;;;;;;;;;;;;;;4.50;73.01;99696.16;4968632;28;19933;-84
2022/04/20 00:46:19;;;;;;;;;;;;;;;4.46;72.95;99695.25;4968336;28;19926;-85
2022/04/20 00:48:45;;;;;;;;;;;;;;;4.18;73.71;99699.31;4968692;28;19914;-84
2022/04/20 00:51:10;;;;;;;;;;;;;;;4.27;74.18;99693.31;4968718;28;19921;-82
2022/04/20 00:53:36;;;;;;;;;;;;;;;4.34;73.94;99699.47;4968602;28;20357;-83
2022/04/20 00:56:01;;;;;;;;;;;;;;;4.18;75.00;99701.91;4968203;28;19949;-83
2022/04/20 00:58:27;;;;;;;;;;;;;;;4.27;74.78;99703.75;4972235;28;19922;-86
2022/04/20 01:00:52;;;;;;;;;;;;;;;4.22;73.15;99703.72;4971676;28;20377;-83
2022/04/20 01:03:18;;;;;;;;;;;;;;;4.05;73.24;99698.31;4971849;28;20057;-83
2022/04/20 01:05:43;;;;;;;;;;;;;;;4.03;73.42;99700.03;4971917;28;19956;-82
2022/04/20 01:08:08;;;;;;;;;;;;;;;3.97;73.32;99699.97;4971768;28;20313;-84
2022/04/20 01:10:34;;;;;;;;;;;;;;;3.87;73.55;99696.34;4970630;28;20040;-83
2022/04/20 01:12:59;;;;;;;;;;;;;;;3.81;74.29;99693.66;4971435;28;20474;-83
2022/04/20 01:15:25;;;;;;;;;;;;;;;3.65;74.83;99686.50;4970703;28;20303;-84
2022/04/20 01:17:50;;;;;;;;;;;;;;;3.65;75.57;99687.38;4970890;28;19928;-83
2022/04/20 01:20:16;;;;;;;;;;;;;;;3.68;74.52;99686.56;4971665;28;19925;-85
2022/04/20 01:22:42;;;;;;;;;;;;;;;3.71;74.22;99694.41;4970571;28;19922;-84
2022/04/20 01:25:08;;;;;;;;;;;;;;;3.76;73.46;99697.94;4970927;28;19949;-84
2022/04/20 01:27:34;;;;;;;;;;;;;;;3.87;73.50;99696.34;4968881;28;20289;-84
2022/04/20 01:29:59;;;;;;;;;;;;;;;3.76;72.90;99683.16;4971471;28;19940;-84
2022/04/20 01:32:25;;;;;;;;;;;;;;;3.73;73.48;99683.13;4970121;28;20456;-83
2022/04/20 01:34:51;;;;;;;;;;;;;;;3.65;73.97;99676.06;4971098;28;19932;-84
2022/04/20 01:37:16;;;;;;;;;;;;;;;3.66;73.76;99688.25;4952023;28;19914;-84
2022/04/20 01:39:42;;;;;;;;;;;;;;;3.84;73.17;99682.38;4965248;28;19922;-84
2022/04/20 01:42:07;;;;;;;;;;;;;;;3.81;73.11;99679.75;4971114;28;19926;-83
2022/04/20 01:44:33;;;;;;;;;;;;;;;3.89;73.24;99680.69;4970113;28;20344;-83
2022/04/20 01:46:58;;;;;;;;;;;;;;;3.83;73.28;99686.75;4970890;28;19928;-84
2022/04/20 01:49:23;;;;;;;;;;;;;;;3.76;73.62;99677.94;4971012;28;20466;-84
2022/04/20 01:51:52;;;;;;;;;;;;;;;3.80;73.50;99675.38;4969834;28;19922;-84
2022/04/20 01:54:20;;;;;;;;;;;;;;;3.83;72.73;99673.69;4970401;28;19950;-84
2022/04/20 01:56:47;;;;;;;;;;;;;;;3.82;72.94;99669.31;4970401;28;19926;-84
2022/04/20 01:59:13;;;;;;;;;;;;;;;3.72;73.52;99663.13;4970148;28;19917;-83
2022/04/20 02:04:22;;;;;;;;;;;;;;;3.88;72.81;99673.75;4969802;28;19980;-85
2022/04/20 02:06:48;;;;;;;;;;;;;;;3.81;72.16;99674.53;4970508;28;19953;-85
2022/04/20 02:09:13;;;;;;;;;;;;;;;3.80;72.24;99678.88;4969443;28;19960;-84
2022/04/20 02:11:39;;;;;;;;;;;;;;;3.72;72.31;99670.97;4970047;28;19929;-84
2022/04/20 02:14:04;;;;;;;;;;;;;;;3.59;73.69;99671.66;4969870;28;19922;-84
2022/04/20 02:16:29;;;;;;;;;;;;;;;3.41;74.04;99682.69;4970373;28;19918;-84
2022/04/20 02:18:55;;;;;;;;;;;;;;;3.47;74.06;99682.78;4968305;28;20372;-83
2022/04/20 02:21:20;;;;;;;;;;;;;;;3.27;75.16;99679.03;4970144;28;20113;-84
2022/04/20 02:23:45;;;;;;;;;;;;;;;3.36;74.36;99684.38;4969000;28;20447;-84
2022/04/20 02:26:11;;;;;;;;;;;;;;;3.41;74.38;99680.09;4970021;28;19953;-84
2022/04/20 02:28:36;;;;;;;;;;;;;;;3.51;74.15;99678.50;4969929;28;20317;-84
2022/04/20 02:31:02;;;;;;;;;;;;;;;3.65;73.46;99678.69;4969889;28;20377;-83
2022/04/20 02:33:27;;;;;;;;;;;;;;;3.54;73.27;99675.94;4969697;28;20377;-83
2022/04/20 02:35:53;;;;;;;;;;;;;;;3.37;73.67;99673.97;4970399;28;19918;-83
2022/04/20 02:38:18;;;;;;;;;;;;;;;3.15;76.03;99680.63;4966699;28;19926;-85
2022/04/20 02:40:44;;;;;;;;;;;;;;;3.28;75.83;99676.44;4966513;28;19984;-85
2022/04/20 02:43:10;;;;;;;;;;;;;;;3.26;76.37;99677.28;4968978;28;19921;-83
2022/04/20 02:45:36;;;;;;;;;;;;;;;3.48;75.66;99678.47;4970133;28;19922;-83
2022/04/20 02:48:01;;;;;;;;;;;;;;;3.47;75.93;99680.19;4969636;28;20024;-84
2022/04/20 02:50:27;;;;;;;;;;;;;;;3.35;76.25;99687.81;4970605;28;19922;-85
2022/04/20 02:52:53;;;;;;;;;;;;;;;3.42;75.63;99691.41;4973476;28;19914;-85
2022/04/20 02:55:18;;;;;;;;;;;;;;;3.46;75.55;99695.81;4972080;28;19956;-84
2022/04/20 02:57:44;;;;;;;;;;;;;;;3.42;74.58;99699.25;4973167;28;20437;-84
2022/04/20 03:00:09;;;;;;;;;;;;;;;3.34;74.17;99700.00;4968213;28;19969;-84
2022/04/20 03:02:35;;;;;;;;;;;;;;;3.24;74.65;99700.72;4969717;28;19925;-82
2022/04/20 03:05:00;;;;;;;;;;;;;;;3.19;74.45;99705.00;4973640;28;20440;-82
2022/04/20 03:07:27;;;;;;;;;;;;;;;3.20;74.82;99696.31;4972758;28;19945;-82
2022/04/20 03:09:52;;;;;;;;;;;;;;;3.20;73.84;99702.41;4975766;28;19922;-83
2022/04/20 03:12:18;;;;;;;;;;;;;;;3.21;73.84;99712.00;4969058;28;19922;-82
2022/04/20 03:14:43;;;;;;;;;;;;;;;3.19;73.75;99716.28;4968790;28;19926;-83
2022/04/20 03:17:08;;;;;;;;;;;;;;;3.20;74.17;99711.97;4968403;28;19965;-82
2022/04/20 03:19:34;;;;;;;;;;;;;;;3.14;74.13;99699.72;4968187;28;19968;-82
2022/04/20 03:21:59;;;;;;;;;;;;;;;3.12;74.18;99709.25;4968591;28;20008;-83
2022/04/20 03:24:24;;;;;;;;;;;;;;;3.15;73.67;99703.19;4967194;28;19972;-84
2022/04/20 03:26:50;;;;;;;;;;;;;;;3.05;73.80;99710.84;4968782;28;19941;-84
2022/04/20 03:29:15;;;;;;;;;;;;;;;2.96;74.31;99705.50;4968867;28;19965;-84
2022/04/20 03:31:41;;;;;;;;;;;;;;;2.99;74.04;99713.38;4967031;28;19922;-82
2022/04/20 03:34:06;;;;;;;;;;;;;;;3.13;73.53;99716.19;4964504;28;19918;-83
2022/04/20 03:36:32;;;;;;;;;;;;;;;3.25;73.46;99712.03;4956279;28;19977;-82
2022/04/20 03:38:57;;;;;;;;;;;;;;;3.29;73.27;99712.09;4953479;28;20329;-86
2022/04/20 03:41:22;;;;;;;;;;;;;;;3.09;74.88;99711.81;4959702;28;19918;-81
2022/04/20 03:43:48;;;;;;;;;;;;;;;3.03;75.16;99720.41;4968602;28;20008;-79
2022/04/20 03:46:14;;;;;;;;;;;;;;;3.14;74.98;99717.09;4969151;28;20432;-84
2022/04/20 03:48:40;;;;;;;;;;;;;;;3.22;74.28;99725.91;4966827;28;19922;-85
2022/04/20 03:51:05;;;;;;;;;;;;;;;3.34;74.18;99730.44;4966193;28;20001;-86
2022/04/20 03:53:31;;;;;;;;;;;;;;;2.86;75.88;99738.34;4969032;28;20000;-88
2022/04/20 03:55:56;;;;;;;;;;;;;;;2.75;78.14;99734.72;4969605;28;19918;-89
2022/04/20 03:58:21;;;;;;;;;;;;;;;2.62;79.32;99733.59;4969150;28;19918;-89
2022/04/20 04:00:47;;;;;;;;;;;;;;;2.83;79.24;99730.50;4969343;28;19921;-90
2022/04/20 04:03:12;;;;;;;;;;;;;;;3.07;79.33;99728.25;4968778;28;19997;-91
2022/04/20 04:05:38;;;;;;;;;;;;;;;3.31;78.72;99733.84;4968800;28;19972;-89
2022/04/20 04:08:03;;;;;;;;;;;;;;;3.36;77.12;99734.78;4967254;28;20377;-90
2022/04/20 04:10:29;;;;;;;;;;;;;;;3.33;76.51;99739.97;4968935;28;19925;-89
2022/04/20 04:12:57;;;;;;;;;;;;;;;3.20;76.85;99745.88;4968732;28;19973;-88
2022/04/20 04:15:22;;;;;;;;;;;;;;;3.30;77.04;99739.03;4969144;28;19954;-88
2022/04/20 04:17:54;;;;;;;;;;;;;;;3.36;77.32;99731.31;4968909;28;20451;-88
2022/04/20 04:20:20;;;;;;;;;;;;;;;3.41;76.11;99737.47;4966741;28;20275;-84
2022/04/20 04:22:45;;;;;;;;;;;;;;;3.62;75.49;99742.13;4970154;28;20415;-85
2022/04/20 04:25:11;;;;;;;;;;;;;;;3.66;74.46;99748.25;4968173;28;19918;-85
2022/04/20 04:27:36;;;;;;;;;;;;;;;3.59;75.28;99748.16;4968229;28;19921;-84
2022/04/20 04:30:02;;;;;;;;;;;;;;;3.69;74.53;99740.47;4968472;28;19928;-85
2022/04/20 04:32:27;;;;;;;;;;;;;;;3.69;75.42;99745.69;4971409;28;19976;-85
2022/04/20 04:34:53;;;;;;;;;;;;;;;3.91;74.81;99745.13;4968695;28;20678;-86
2022/04/20 04:37:18;;;;;;;;;;;;;;;4.00;75.30;99743.47;4969601;28;19914;-84
2022/04/20 04:39:43;;;;;;;;;;;;;;;4.18;75.11;99748.06;4971042;28;19921;-85
2022/04/20 04:42:09;;;;;;;;;;;;;;;4.26;75.11;99749.00;4970772;28;20428;-85
2022/04/20 04:44:34;;;;;;;;;;;;;;;4.39;76.08;99758.75;4972009;28;19944;-84
2022/04/20 04:49:43;;;;;;;;;;;;;;;4.84;74.79;99746.13;4953643;29;20628;-88
2022/04/20 04:52:11;;;;;;;;;;;;;;;5.01;74.69;99744.53;4966126;28;19918;-87
2022/04/20 04:54:38;;;;;;;;;;;;;;;5.16;74.44;99737.69;4972992;28;19918;-88
2022/04/20 04:57:04;;;;;;;;;;;;;;;5.09;74.80;99748.94;4970420;28;19945;-86
2022/04/20 04:59:29;;;;;;;;;;;;;;;5.31;74.71;99737.75;4970688;28;19976;-84
2022/04/20 05:01:55;;;;;;;;;;;;;;;5.67;73.59;99733.66;4969938;28;19972;-84
2022/04/20 05:04:20;;;;;;;;;;;;;;;5.20;74.18;99728.97;4971640;28;19922;-83
2022/04/20 05:06:45;;;;;;;;;;;;;;;5.40;74.51;99730.88;4971129;28;19980;-83
2022/04/20 05:09:11;;;;;;;;;;;;;;;5.56;73.80;99732.69;4971413;28;20312;-83
2022/04/20 05:11:37;;;;;;;;;;;;;;;5.74;73.45;99735.41;4970770;28;19914;-84
2022/04/20 05:14:02;;;;;;;;;;;;;;;5.89;73.11;99739.00;4970746;28;19981;-83
2022/04/20 05:16:27;;;;;;;;;;;;;;;6.19;73.16;99743.50;4971323;28;19918;-83
2022/04/20 05:18:53;;;;;;;;;;;;;;;6.38;72.99;99735.69;4971673;28;19925;-83
2022/04/20 05:21:18;;;;;;;;;;;;;;;6.20;72.47;99739.16;4971223;28;19922;-83
2022/04/20 05:23:44;;;;;;;;;;;;;;;6.18;73.21;99743.50;4971718;28;20407;-83
2022/04/20 05:26:09;;;;;;;;;;;;;;;6.24;72.74;99735.66;4971506;28;20448;-83
2022/04/20 05:28:34;;;;;;;;;;;;;;;6.50;71.88;99743.59;4971255;28;19937;-83
2022/04/20 05:31:00;;;;;;;;;;;;;;;6.83;71.30;99741.91;4971107;28;19981;-83
2022/04/20 05:33:25;;;;;;;;;;;;;;;7.26;70.72;99734.06;4969523;28;20355;-82
2022/04/20 05:35:50;;;;;;;;;;;;;;;7.56;70.51;99734.88;4970046;28;19973;-83
2022/04/20 05:43:44;;;;;;;;;;;;;;;7.56;67.81;99716.50;4955969;28;19973;-83
2022/04/20 05:46:09;;;;;;;;;;;;;;;7.65;68.81;99724.34;4971134;28;19933;-83
2022/04/20 05:48:35;;;;;;;;;;;;;;;8.00;68.66;99715.47;4971117;28;19918;-83
2022/04/20 05:51:00;;;;;;;;;;;;;;;8.18;66.72;99713.63;4970605;28;19981;-81
2022/04/20 05:53:26;;;;;;;;;;;;;;;8.42;67.21;99704.75;4971191;28;19925;-84
2022/04/20 05:55:51;;;;;;;;;;;;;;;8.76;66.04;99702.81;4971426;28;19918;-83
2022/04/20 05:58:17;;;;;;;;;;;;;;;8.21;67.71;99713.63;4971262;28;19922;-83
2022/04/20 06:00:42;;;;;;;;;;;;;;;8.71;67.41;99719.50;4966645;28;19933;-83
2022/04/20 06:03:07;;;;;;;;;;;;;;;8.69;66.89;99719.50;4955371;28;20415;-83
2022/04/20 06:05:33;;;;;;;;;;;;;;;9.19;67.02;99716.47;4966151;28;19925;-84
2022/04/20 06:07:58;;;;;;;;;;;;;;;9.49;63.94;99708.28;4951159;28;20385;-83
2022/04/20 06:10:23;;;;;;;;;;;;;;;8.33;65.11;99707.44;4961186;28;20013;-83
2022/04/20 06:12:49;;;;;;;;;;;;;;;8.67;67.03;99705.50;4970270;28;20393;-84
2022/04/20 06:15:15;;;;;;;;;;;;;;;8.80;65.54;99693.13;4969612;28;20375;-84
2022/04/20 06:17:40;;;;;;;;;;;;;;;9.00;66.44;99692.09;4969949;28;19965;-82
2022/04/20 06:20:06;;;;;;;;;;;;;;;9.37;66.14;99689.97;4964335;28;19918;-82
2022/04/20 06:22:31;;;;;;;;;;;;;;;9.72;63.90;99683.47;4950235;28;19922;-85
2022/04/20 06:24:56;;;;;;;;;;;;;;;9.43;63.49;99676.75;4964231;28;19957;-84
2022/04/20 06:27:27;;;;;;;;;;;;;;;9.42;63.93;99675.03;4969634;28;19954;-84
2022/04/20 06:29:53;;;;;;;;;;;;;;;9.61;64.74;99666.94;4969609;28;20025;-84
2022/04/20 06:32:19;;;;;;;;;;;;;;;9.83;61.56;99665.75;4970228;28;20397;-83
2022/04/20 06:34:44;;;;;;;;;;;;;;;9.93;60.38;99673.53;4961980;28;20710;-83
2022/04/20 06:37:13;;;;;;;;;;;;;;;9.82;62.33;99660.50;4965908;28;20340;-82
2022/04/20 06:39:39;;;;;;;;;;;;;;;9.76;61.05;99653.56;4969870;28;20448;-81
2022/04/20 06:42:04;;;;;;;;;;;;;;;9.60;62.04;99655.50;4969862;28;19980;-82
2022/04/20 06:44:30;;;;;;;;;;;;;;;9.56;61.81;99658.19;4970185;28;19918;-82
2022/04/20 06:46:56;;;;;;;;;;;;;;;9.80;61.21;99663.16;4969695;28;19925;-81
2022/04/20 06:49:21;;;;;;;;;;;;;;;9.43;61.50;99662.72;4969818;28;19918;-81
2022/04/20 06:59:58;;;;;;;;;;;;;;;10.23;59.21;99679.31;4969746;28;20652;-82
2022/04/20 07:02:24;;;;;;;;;;;;;;;9.63;62.69;99686.19;4967082;28;19918;-82
2022/04/20 07:04:49;;;;;;;;;;;;;;;9.65;61.66;99689.69;4968795;28;19917;-82
2022/04/20 07:07:15;;;;;;;;;;;;;;;9.55;64.53;99694.19;4968894;28;19918;-83
2022/04/20 07:09:40;;;;;;;;;;;;;;;9.40;63.47;99686.44;4967131;28;19930;-82
2022/04/20 07:12:06;;;;;;;;;;;;;;;9.43;62.27;99687.28;4968938;28;19969;-83
2022/04/20 07:14:31;;;;;;;;;;;;;;;9.68;61.73;99685.28;4968572;28;19968;-80
2022/04/20 07:16:56;;;;;;;;;;;;;;;9.77;62.63;99688.69;4969540;28;19965;-81
2022/04/20 07:19:22;;;;;;;;;;;;;;;9.22;65.05;99688.38;4968138;28;19922;-81
2022/04/20 07:21:47;;;;;;;;;;;;;;;9.58;63.90;99693.28;4969138;28;19922;-81
2022/04/20 07:24:13;;;;;;;;;;;;;;;9.25;64.24;99684.84;4968884;28;19925;-82
2022/04/20 07:26:38;;;;;;;;;;;;;;;9.30;66.20;99688.31;4968337;28;19922;-81
2022/04/20 07:29:03;;;;;;;;;;;;;;;9.37;64.55;99673.31;4969424;28;19976;-80
2022/04/20 07:31:28;;;;;;;;;;;;;;;9.46;64.10;99670.59;4968006;28;19977;-82
2022/04/20 07:33:54;;;;;;;;;;;;;;;9.70;62.98;99671.19;4969122;28;19914;-81
2022/04/20 07:36:21;;;;;;;;;;;;;;;9.91;62.78;99678.84;4969584;28;19917;-81
2022/04/20 07:38:46;;;;;;;;;;;;;;;9.92;63.01;99682.38;4968671;28;20458;-81
2022/04/20 07:41:11;;;;;;;;;;;;;;;10.23;61.36;99674.91;4968966;28;19925;-81
2022/04/20 07:43:37;;;;;;;;;;;;;;;10.25;62.07;99669.63;4968855;28;19925;-81
2022/04/20 07:46:02;;;;;;;;;;;;;;;10.07;62.41;99668.09;4968900;28;19914;-81
2022/04/20 07:48:27;;;;;;;;;;;;;;;9.78;62.93;99664.94;4968367;28;19972;-82
2022/04/20 07:50:53;;;;;;;;;;;;;;;9.58;63.62;99666.97;4968623;28;20072;-81
2022/04/20 07:53:18;;;;;;;;;;;;;;;9.21;66.44;99667.34;4968806;28;19914;-81
2022/04/20 07:55:46;;;;;;;;;;;;;;;9.23;67.08;99676.94;4968641;28;19914;-81
2022/04/20 07:58:12;;;;;;;;;;;;;;;9.67;65.78;99670.34;4968958;28;19941;-80
2022/04/20 08:00:38;;;;;;;;;;;;;;;9.25;67.19;99656.78;4968903;28;19977;-80
2022/04/20 08:03:11;;;;;;;;;;;;;;;9.42;67.69;99653.97;4968430;28;19918;-81
2022/04/20 08:05:37;;;;;;;;;;;;;;;9.57;65.17;99657.31;4969018;28;19918;-81
2022/04/20 08:08:02;;;;;;;;;;;;;;;9.42;66.27;99656.59;4968155;28;19921;-80
2022/04/20 08:10:28;;;;;;;;;;;;;;;9.18;66.24;99652.44;4967791;28;20400;-81
2022/04/20 08:12:53;;;;;;;;;;;;;;;9.29;67.20;99668.13;4968568;28;19914;-80
2022/04/20 08:15:18;;;;;;;;;;;;;;;9.43;67.01;99663.59;4968001;28;19914;-80
2022/04/20 08:17:44;;;;;;;;;;;;;;;9.75;66.90;99666.75;4967418;28;19918;-80
2022/04/20 08:20:10;;;;;;;;;;;;;;;9.58;65.92;99669.59;4966493;28;19917;-80
2022/04/20 08:22:40;;;;;;;;;;;;;;;9.11;65.28;99675.34;4968609;28;19929;-80
2022/04/20 08:25:05;;;;;;;;;;;;;;;8.86;68.24;99671.16;4968550;28;19917;-81
2022/04/20 08:27:31;;;;;;;;;;;;;;;9.12;66.66;99670.94;4967582;28;20531;-81
2022/04/20 08:29:57;;;;;;;;;;;;;;;8.65;66.77;99667.84;4968189;28;19921;-81
2022/04/20 08:32:23;;;;;;;;;;;;;;;9.34;67.14;99665.44;4967688;28;19914;-81
2022/04/20 08:34:51;;;;;;;;;;;;;;;9.67;64.41;99666.84;4968802;28;20293;-81
2022/04/20 08:37:16;;;;;;;;;;;;;;;9.59;64.77;99664.31;4968797;28;19940;-81
2022/04/20 08:39:42;;;;;;;;;;;;;;;9.77;65.52;99663.19;4967855;28;19918;-81
2022/04/20 08:42:07;;;;;;;;;;;;;;;9.66;64.42;99667.72;4967874;28;19922;-81
2022/04/20 08:44:35;;;;;;;;;;;;;;;9.52;66.24;99670.53;4968578;28;19918;-82
2022/04/20 08:47:01;;;;;;;;;;;;;;;9.00;65.31;99674.53;4967793;28;19922;-80
2022/04/20 08:49:26;;;;;;;;;;;;;;;9.40;66.32;99673.28;4968083;28;19933;-82
2022/04/20 08:54:36;;;;;;;;;;;;;;;9.77;65.24;99681.63;4968928;28;20060;-81
2022/04/20 08:57:19;;;;;;;;;;;;;;;9.60;64.32;99670.44;4967616;28;19957;-81
2022/04/20 08:59:47;;;;;;;;;;;;;;;9.47;64.84;99672.34;4968831;28;19941;-81
2022/04/20 09:02:12;;;;;;;;;;;;;;;9.27;63.96;99676.03;4968099;28;19921;-81
2022/04/20 09:04:38;;;;;;;;;;;;;;;9.32;64.64;99674.22;4968106;28;19917;-82
2022/04/20 09:07:07;;;;;;;;;;;;;;;9.44;63.68;99673.25;4968476;28;20016;-80
2022/04/20 09:09:33;;;;;;;;;;;;;;;9.75;62.82;99658.84;4967684;28;19918;-81
2022/04/20 09:11:59;;;;;;;;;;;;;;;9.81;62.82;99653.50;4968827;28;19918;-81
2022/04/20 09:14:25;;;;;;;;;;;;;;;10.15;62.14;99653.06;4968933;28;19914;-81
2022/04/20 09:16:54;;;;;;;;;;;;;;;9.98;61.97;99661.19;4970012;28;19933;-80
2022/04/20 09:19:24;;;;;;;;;;;;;;;9.57;64.54;99657.31;4971906;28;19975;-82
2022/04/20 09:21:55;;;;;;;;;;;;;;;9.47;64.96;99646.88;4971623;28;20635;-79
2022/04/20 09:24:21;;;;;;;;;;;;;;;9.35;66.73;99651.41;4971629;28;19918;-83
2022/04/20 09:26:50;;;;;;;;;;;;;;;8.98;68.78;99649.16;4971595;28;19972;-82
2022/04/20 09:29:15;;;;;;;;;;;;;;;9.11;69.89;99646.38;4971775;28;20032;-83
2022/04/20 09:31:41;;;;;;;;;;;;;;;9.13;68.88;99649.00;4971921;28;20432;-82
2022/04/20 09:34:07;;;;;;;;;;;;;;;8.65;71.26;99644.16;4969695;28;20664;-82
2022/04/20 09:36:42;;;;;;;;;;;;;;;8.85;68.77;99643.09;4971546;28;19925;-82
2022/04/20 09:39:09;;;;;;;;;;;;;;;8.76;69.40;99641.44;4970813;28;20036;-83
2022/04/20 09:41:54;;;;;;;;;;;;;;;8.79;71.00;99638.78;4971161;28;19914;-81
2022/04/20 09:44:22;;;;;;;;;;;;;;;8.82;70.09;99645.75;4971755;28;19978;-79
2022/04/20 09:49:35;;;;;;;;;;;;;;;9.03;68.90;99629.78;4968782;28;19981;-79
2022/04/20 09:52:12;;;;;;;;;;;;;;;8.77;70.25;99630.00;4970819;28;19922;-80
2022/04/20 09:54:38;;;;;;;;;;;;;;;9.02;68.76;99622.78;4970915;28;19910;-80
2022/04/20 09:57:13;;;;;;;;;;;;;;;9.25;68.31;99622.56;4970381;28;19976;-79
2022/04/20 09:59:57;;;;;;;;;;;;;;;9.47;70.02;99619.69;4971230;28;19910;-81
2022/04/20 10:02:23;;;;;;;;;;;;;;;9.49;68.27;99617.88;4970896;28;20424;-80
2022/04/20 10:04:48;;;;;;;;;;;;;;;9.63;67.02;99618.59;4970904;28;19910;-81
2022/04/20 10:07:14;;;;;;;;;;;;;;;9.47;66.65;99604.75;4970545;28;19921;-81
2022/04/20 10:09:40;;;;;;;;;;;;;;;9.51;66.15;99602.94;4970444;28;19918;-81
2022/04/20 10:12:06;;;;;;;;;;;;;;;9.55;66.42;99594.13;4971001;28;19918;-81
2022/04/20 10:17:21;;;;;;;;;;;;;;;9.85;64.39;99592.84;4970643;28;19925;-81
2022/04/20 10:19:47;;;;;;;;;;;;;;;9.96;63.82;99586.53;4969859;28;19937;-81
2022/04/20 10:22:13;;;;;;;;;;;;;;;9.58;65.58;99583.53;4969062;28;19941;-81
2022/04/20 10:24:41;;;;;;;;;;;;;;;9.82;66.69;99582.38;4969997;28;19918;-82
2022/04/20 10:27:09;;;;;;;;;;;;;;;9.56;64.53;99580.06;4969595;28;19925;-81
2022/04/20 10:29:50;;;;;;;;;;;;;;;10.05;64.84;99567.97;4969771;28;19924;-81
2022/04/20 10:32:38;;;;;;;;;;;;;;;10.26;63.00;99560.66;4968940;28;20024;-82
2022/04/20 10:35:04;;;;;;;;;;;;;;;10.50;62.36;99551.47;4964398;28;19925;-82
2022/04/20 10:37:31;;;;;;;;;;;;;;;10.59;61.67;99553.09;4970967;28;19917;-81
2022/04/20 10:40:15;;;;;;;;;;;;;;;10.67;62.51;99552.03;4969398;28;19985;-81
2022/04/20 10:42:41;;;;;;;;;;;;;;;10.47;61.01;99548.88;4969957;28;19918;-81
2022/04/20 10:45:07;;;;;;;;;;;;;;;10.76;60.38;99548.38;4969891;28;20348;-82
2022/04/20 10:47:32;;;;;;;;;;;;;;;10.56;58.68;99544.31;4969139;28;19937;-82
2022/04/20 10:50:12;;;;;;;;;;;;;;;10.44;58.94;99547.19;4970046;28;19913;-82
2022/04/20 10:52:38;;;;;;;;;;;;;;;10.19;60.23;99541.41;4968361;28;19953;-81
2022/04/20 10:55:04;;;;;;;;;;;;;;;10.15;60.00;99537.09;4969632;28;20013;-81
2022/04/20 10:57:34;;;;;;;;;;;;;;;10.29;60.48;99544.78;4969718;28;19918;-81
2022/04/20 11:00:17;;;;;;;;;;;;;;;10.63;58.78;99544.22;4969900;28;19918;-81
2022/04/20 11:02:50;;;;;;;;;;;;;;;10.52;59.05;99541.78;4968842;28;19941;-81
2022/04/20 11:05:18;;;;;;;;;;;;;;;10.73;59.21;99538.75;4970043;28;19914;-81
2022/04/20 11:08:04;;;;;;;;;;;;;;;10.88;58.37;99534.09;4970779;28;19922;-82
2022/04/20 11:10:30;;;;;;;;;;;;;;;10.57;59.25;99522.34;4969707;28;20024;-84
2022/04/20 11:19:03;;;;;;;;;;;;;;;10.70;58.27;99515.06;4970599;28;19992;-81
2022/04/20 11:21:31;;;;;;;;;;;;;;;10.82;58.23;99498.13;4969351;28;20013;-80
2022/04/20 11:24:03;;;;;;;;;;;;;;;10.63;59.19;99489.72;4970058;28;20328;-81
2022/04/20 11:26:34;;;;;;;;;;;;;;;10.75;59.62;99485.94;4969634;28;19925;-81
2022/04/20 11:29:03;;;;;;;;;;;;;;;10.67;60.29;99467.63;4969362;28;19979;-81
2022/04/20 11:31:57;;;;;;;;;;;;;;;10.33;60.85;99472.66;4969646;28;19949;-80
2022/04/20 11:34:22;;;;;;;;;;;;;;;10.70;60.73;99482.53;4968042;28;19913;-81
2022/04/20 11:36:49;;;;;;;;;;;;;;;10.64;61.05;99472.97;4969498;28;19921;-82
2022/04/20 11:39:16;;;;;;;;;;;;;;;10.70;61.93;99464.94;4969139;28;20647;-81
2022/04/20 11:41:48;;;;;;;;;;;;;;;10.92;62.32;99464.50;4966873;28;19914;-84
2022/04/20 11:44:21;;;;;;;;;;;;;;;11.10;60.95;99463.28;4969024;28;19997;-84
2022/04/20 11:46:47;;;;;;;;;;;;;;;11.12;61.84;99461.47;4968634;28;19918;-84
2022/04/20 11:49:12;;;;;;;;;;;;;;;11.22;60.69;99464.81;4969019;28;19917;-82
2022/04/20 11:51:43;;;;;;;;;;;;;;;11.43;60.18;99453.78;4968910;28;20293;-82
2022/04/20 11:54:09;;;;;;;;;;;;;;;11.49;59.78;99447.47;4969349;28;19925;-81
2022/04/20 11:56:37;;;;;;;;;;;;;;;10.80;61.41;99443.66;4968648;28;20317;-81
2022/04/20 11:59:03;;;;;;;;;;;;;;;10.43;63.40;99439.97;4969534;28;19957;-81
2022/04/20 12:01:29;;;;;;;;;;;;;;;10.46;64.52;99434.63;4968640;28;19917;-82
2022/04/20 12:03:55;;;;;;;;;;;;;;;10.61;63.27;99422.03;4969623;28;19976;-81
2022/04/20 12:06:23;;;;;;;;;;;;;;;10.49;63.99;99408.22;4970113;28;20320;-83
2022/04/20 12:08:51;;;;;;;;;;;;;;;10.28;65.48;99413.84;4969481;28;19918;-83
2022/04/20 12:11:16;;;;;;;;;;;;;;;10.62;63.83;99415.88;4952792;28;20005;-84
2022/04/20 12:13:42;;;;;;;;;;;;;;;10.86;63.72;99414.50;4952578;28;19918;-83
2022/04/20 12:16:11;;;;;;;;;;;;;;;11.09;62.73;99408.72;4950253;28;19922;-82
2022/04/20 12:18:39;;;;;;;;;;;;;;;11.33;61.93;99409.13;4960414;28;19922;-83
2022/04/20 12:21:09;;;;;;;;;;;;;;;11.03;62.17;99386.00;4970156;28;19918;-81
2022/04/20 12:23:35;;;;;;;;;;;;;;;11.07;62.63;99389.44;4970239;28;19953;-83
2022/04/20 12:26:04;;;;;;;;;;;;;;;10.82;64.36;99397.00;4968362;28;19961;-83
2022/04/20 12:28:43;;;;;;;;;;;;;;;10.44;64.21;99378.44;4950946;28;19922;-83
2022/04/20 12:31:12;;;;;;;;;;;;;;;10.62;64.72;99371.03;4952140;28;19914;-83
2022/04/20 12:33:37;;;;;;;;;;;;;;;11.20;64.83;99369.78;4952810;28;19918;-81
2022/04/20 12:36:08;;;;;;;;;;;;;;;11.35;63.28;99355.34;4953282;29;20427;-83
2022/04/20 12:38:47;;;;;;;;;;;;;;;11.25;61.85;99343.28;4952456;28;20409;-78
2022/04/20 12:41:31;;;;;;;;;;;;;;;11.20;62.82;99330.19;4952162;28;19984;-82
2022/04/20 12:43:56;;;;;;;;;;;;;;;10.86;63.64;99309.84;4965928;28;19954;-83
2022/04/20 12:46:21;;;;;;;;;;;;;;;11.10;63.92;99311.03;4950822;28;19918;-83
2022/04/20 12:48:47;;;;;;;;;;;;;;;11.49;62.69;99307.47;4966023;28;19972;-80
2022/04/20 12:51:22;;;;;;;;;;;;;;;11.99;61.64;99315.91;4969891;28;19957;-82
2022/04/20 12:53:48;;;;;;;;;;;;;;;11.76;61.36;99323.56;4972158;28;19925;-83
2022/04/20 13:04:25;;;;;;;;;;;;;;;11.75;62.73;99283.03;4972568;28;19953;-81
2022/04/20 13:06:50;;;;;;;;;;;;;;;11.58;63.70;99274.69;4973041;28;20336;-81
2022/04/20 13:09:16;;;;;;;;;;;;;;;11.79;63.86;99266.19;4972711;28;19918;-84
2022/04/20 13:11:41;;;;;;;;;;;;;;;11.97;62.33;99259.59;4974655;28;19918;-82
2022/04/20 13:14:07;;;;;;;;;;;;;;;11.71;63.05;99247.03;4974269;28;19921;-82
2022/04/20 13:16:32;;;;;;;;;;;;;;;11.92;64.00;99240.31;4971634;28;19956;-82
2022/04/20 13:18:59;;;;;;;;;;;;;;;11.62;63.60;99240.22;4972095;28;19921;-82
2022/04/20 13:21:24;;;;;;;;;;;;;;;11.42;63.62;99219.59;4972926;28;19929;-81
2022/04/20 13:23:52;;;;;;;;;;;;;;;11.06;65.69;99221.41;4972409;28;20317;-81
2022/04/20 13:29:01;;;;;;;;;;;;;;;11.31;65.80;99215.50;4971631;28;19925;-81
2022/04/20 13:31:26;;;;;;;;;;;;;;;11.33;64.59;99219.84;4971861;28;19918;-82
2022/04/20 13:33:52;;;;;;;;;;;;;;;11.36;66.12;99216.28;4971388;28;20451;-81
2022/04/20 13:36:17;;;;;;;;;;;;;;;11.59;65.42;99205.97;4971517;28;20380;-81